Terminal Aerodrome Forecast
Issued by NWS

Home | Current Version | Previous Version | Text Only | Print | Product List | Glossary On
Versions: 1 2 3 4 5 6 7 8 9 10 11 12 13
000
FTUS44 KLIX 011100 RRA
TAFMCB
TAF
KMCB 011144Z 0112/0212 00000KT P6SM VCSH BKN090
     FM011400 05005KT 3SM -TSRA BR BKN040CB
     FM011800 07007KT 3SM -SHRA BR BKN040
     FM012200 06007KT P6SM BKN040
     FM020000 VRB03KT P6SM BKN030=

USA.gov is the U.S. government's official web portal to all federal, state and local government web resources and services.